createdAt,value
2019-05-16T00:01:25.468Z,1.50
2019-05-16T00:03:55.095Z,1.60
2019-05-16T00:06:28.425Z,1.70
2019-05-16T00:08:58.632Z,1.67
2019-05-16T00:11:29.654Z,1.70
2019-05-16T00:13:59.517Z,1.57
2019-05-16T00:16:31.669Z,1.70
2019-05-16T00:19:01.932Z,1.57
2019-05-16T00:21:31.606Z,1.70
2019-05-16T00:24:01.866Z,1.90
2019-05-16T00:26:32.935Z,2.03
2019-05-16T00:29:03.234Z,1.80
2019-05-16T00:31:38.058Z,1.57
2019-05-16T00:34:12.730Z,1.70
2019-05-16T00:36:43.590Z,1.70
2019-05-16T00:39:13.601Z,1.90
2019-05-16T00:41:44.004Z,2.10
2019-05-16T00:44:13.667Z,2.57
2019-05-16T00:46:43.515Z,2.87
2019-05-16T00:49:13.101Z,2.97
2019-05-16T00:51:42.992Z,3.00
2019-05-16T00:54:13.259Z,3.30
2019-05-16T00:56:43.976Z,3.20
2019-05-16T00:59:14.571Z,2.80
2019-05-16T01:01:44.903Z,2.23
2019-05-16T01:04:14.551Z,2.60
2019-05-16T01:06:45.716Z,2.40
2019-05-16T01:09:15.432Z,1.80
2019-05-16T01:11:45.188Z,1.90
2019-05-16T01:14:15.235Z,2.30
2019-05-16T01:16:45.250Z,2.20
2019-05-16T01:19:15.064Z,2.23
2019-05-16T01:21:48.301Z,2.30
2019-05-16T01:24:18.783Z,2.40
2019-05-16T01:26:49.531Z,2.23
2019-05-16T01:29:19.094Z,2.00
2019-05-16T01:31:48.807Z,2.20
2019-05-16T01:34:18.771Z,2.20
2019-05-16T01:36:48.702Z,2.10
2019-05-16T01:39:18.781Z,1.97
2019-05-16T01:41:49.942Z,1.90
2019-05-16T01:44:19.842Z,1.93
2019-05-16T01:46:49.412Z,2.10
2019-05-16T01:49:19.140Z,1.90
2019-05-16T01:51:48.908Z,2.10
2019-05-16T01:54:18.788Z,2.00
2019-05-16T01:56:48.860Z,2.13
2019-05-16T01:59:18.880Z,2.23
2019-05-16T02:01:48.668Z,2.10
2019-05-16T02:04:18.662Z,2.30
2019-05-16T02:06:54.582Z,2.30
2019-05-16T02:09:20.083Z,2.10
2019-05-16T02:11:49.571Z,2.70
2019-05-16T02:14:19.240Z,2.30
2019-05-16T02:16:49.545Z,2.20
2019-05-16T02:19:19.569Z,2.00
2019-05-16T02:21:50.665Z,2.10
2019-05-16T02:24:20.693Z,2.30
2019-05-16T02:26:52.486Z,2.10
2019-05-16T02:29:21.995Z,2.17
2019-05-16T02:31:51.715Z,2.20
2019-05-16T02:34:22.017Z,1.93
2019-05-16T02:37:09.861Z,1.93
2019-05-16T02:39:23.260Z,2.30
2019-05-16T02:41:54.423Z,2.30
2019-05-16T02:44:24.816Z,2.00
2019-05-16T02:46:55.248Z,2.30
2019-05-16T02:49:24.906Z,2.33
2019-05-16T02:51:57.074Z,2.10
2019-05-16T02:54:31.620Z,2.10
2019-05-16T02:57:01.455Z,1.87
2019-05-16T02:59:31.194Z,2.07
2019-05-16T03:02:02.619Z,2.10
2019-05-16T03:04:32.214Z,1.93
2019-05-16T03:07:03.631Z,2.30
2019-05-16T03:09:34.924Z,2.50
2019-05-16T03:12:04.790Z,2.30
2019-05-16T03:14:35.166Z,2.20
2019-05-16T03:17:06.624Z,2.30
2019-05-16T03:19:41.490Z,2.60
2019-05-16T03:22:11.678Z,2.37
2019-05-16T03:24:42.241Z,2.00
2019-05-16T03:27:13.599Z,2.03
2019-05-16T03:29:43.201Z,2.03
2019-05-16T03:32:14.244Z,2.10
2019-05-16T03:34:44.688Z,2.10
2019-05-16T03:37:15.100Z,1.90
2019-05-16T03:39:46.039Z,2.10
2019-05-16T03:42:15.725Z,2.10
2019-05-16T03:44:45.254Z,2.20
2019-05-16T03:47:17.561Z,2.03
2019-05-16T03:49:51.561Z,2.33
2019-05-16T03:52:21.416Z,2.10
2019-05-16T03:54:51.007Z,2.43
2019-05-16T03:57:21.361Z,2.20
2019-05-16T03:59:52.388Z,2.40
2019-05-16T04:02:22.406Z,1.90
2019-05-16T04:04:52.231Z,2.10
2019-05-16T04:07:23.413Z,2.13
2019-05-16T04:09:53.549Z,2.07
2019-05-16T04:12:23.194Z,2.53
2019-05-16T04:14:53.510Z,2.30
2019-05-16T04:17:23.359Z,2.23
2019-05-16T04:19:53.866Z,2.30
2019-05-16T04:22:24.221Z,2.30
2019-05-16T04:24:54.099Z,1.93
2019-05-16T04:27:23.753Z,2.40
2019-05-16T04:29:55.018Z,2.17
2019-05-16T04:32:26.381Z,2.30
2019-05-16T04:34:56.392Z,2.30
2019-05-16T04:37:26.515Z,2.50
2019-05-16T04:40:01.373Z,2.63
2019-05-16T04:42:31.217Z,2.60
2019-05-16T04:45:01.723Z,2.00
2019-05-16T04:47:34.779Z,2.10
2019-05-16T04:50:05.032Z,2.23
2019-05-16T04:52:35.280Z,1.97
2019-05-16T04:55:07.648Z,1.80
2019-05-16T04:57:42.160Z,1.97
2019-05-16T05:00:11.979Z,1.90
2019-05-16T05:02:42.832Z,2.33
2019-05-16T05:05:14.065Z,2.17
2019-05-16T05:07:45.940Z,1.97
2019-05-16T05:10:16.004Z,2.27
2019-05-16T05:12:46.915Z,2.13
2019-05-16T05:15:17.993Z,2.10
2019-05-16T05:17:50.950Z,1.70
2019-05-16T05:20:21.312Z,2.30
2019-05-16T05:22:51.487Z,2.23
2019-05-16T05:25:24.687Z,1.70
2019-05-16T05:27:56.794Z,2.10
2019-05-16T05:30:27.114Z,1.90
2019-05-16T05:32:56.683Z,2.20
2019-05-16T05:35:27.307Z,1.60
2019-05-16T05:38:01.304Z,1.80
2019-05-16T05:40:31.402Z,1.90
2019-05-16T05:43:01.147Z,1.50
2019-05-16T05:45:32.718Z,1.50
2019-05-16T05:48:02.931Z,1.73
2019-05-16T05:50:33.435Z,1.60
2019-05-16T05:53:04.154Z,1.57
2019-05-16T05:55:36.583Z,1.30
2019-05-16T05:58:06.954Z,1.50
2019-05-16T06:00:40.390Z,1.40
2019-05-16T06:03:10.664Z,1.33
2019-05-16T06:05:41.729Z,1.33
2019-05-16T06:08:11.741Z,1.50
2019-05-16T06:10:43.017Z,1.40
2019-05-16T06:13:12.777Z,1.30
2019-05-16T06:15:42.993Z,1.00
2019-05-16T06:18:12.998Z,1.40
2019-05-16T06:20:42.885Z,1.10
2019-05-16T06:23:13.133Z,1.37
2019-05-16T06:25:44.124Z,1.20
2019-05-16T06:28:14.314Z,1.13
2019-05-16T06:30:44.532Z,1.10
2019-05-16T06:33:16.049Z,1.20
2019-05-16T06:35:46.275Z,1.20
2019-05-16T06:38:16.128Z,1.20
2019-05-16T06:40:49.069Z,1.53
2019-05-16T06:43:20.445Z,1.10
2019-05-16T06:45:51.533Z,1.00
2019-05-16T06:48:21.806Z,1.10
2019-05-16T06:50:52.061Z,1.00
2019-05-16T06:53:22.896Z,1.00
2019-05-16T06:55:52.914Z,1.00
2019-05-16T06:58:22.708Z,1.70
2019-05-16T07:00:52.906Z,1.00
2019-05-16T07:03:22.673Z,1.03
2019-05-16T07:05:52.625Z,1.20
2019-05-16T07:08:22.423Z,1.10
2019-05-16T07:10:52.694Z,1.20
2019-05-16T07:13:22.584Z,1.10
2019-05-16T07:15:52.651Z,0.90
2019-05-16T07:18:22.696Z,1.10
2019-05-16T07:20:53.259Z,1.17
2019-05-16T07:23:22.786Z,1.07
2019-05-16T07:25:52.369Z,0.90
2019-05-16T07:28:23.686Z,1.10
2019-05-16T07:30:53.365Z,0.90
2019-05-16T07:33:23.075Z,1.03
2019-05-16T07:35:53.373Z,1.07
2019-05-16T07:38:23.704Z,0.90
2019-05-16T07:40:53.616Z,1.20
2019-05-16T07:43:23.834Z,1.00
2019-05-16T07:45:54.922Z,0.90
2019-05-16T07:48:25.108Z,0.93
2019-05-16T07:50:55.129Z,1.10
2019-05-16T07:53:24.655Z,1.17
2019-05-16T07:55:55.132Z,0.80
2019-05-16T07:58:26.416Z,0.87
2019-05-16T08:01:04.573Z,1.40
2019-05-16T08:03:32.158Z,1.43
2019-05-16T08:06:02.363Z,1.50
2019-05-16T08:08:31.921Z,1.93
2019-05-16T08:11:03.084Z,1.50
2019-05-16T08:13:32.760Z,1.37
2019-05-16T08:16:03.534Z,1.00
2019-05-16T08:18:33.281Z,0.90
2019-05-16T08:21:02.986Z,2.53
2019-05-16T08:23:33.111Z,1.07
2019-05-16T08:26:04.651Z,1.27
2019-05-16T08:28:34.480Z,1.90
2019-05-16T08:31:04.346Z,1.30
2019-05-16T08:33:35.526Z,0.80
2019-05-16T08:36:08.246Z,1.10
2019-05-16T08:38:37.840Z,0.80
2019-05-16T08:41:12.827Z,0.73
2019-05-16T08:43:41.467Z,1.00
2019-05-16T08:46:12.392Z,1.40
2019-05-16T08:48:42.515Z,1.10
2019-05-16T08:51:14.746Z,0.80
2019-05-16T08:53:45.337Z,0.93
2019-05-16T08:56:17.937Z,1.10
2019-05-16T08:58:53.395Z,0.90
2019-05-16T09:01:21.721Z,0.87
2019-05-16T09:03:52.407Z,0.80
2019-05-16T09:06:23.089Z,1.00
2019-05-16T09:08:58.300Z,0.87
2019-05-16T09:11:35.595Z,0.97
2019-05-16T09:13:58.770Z,0.90
2019-05-16T09:16:28.310Z,0.73
2019-05-16T09:18:58.290Z,0.97
2019-05-16T09:21:29.103Z,0.70
2019-05-16T09:23:59.214Z,1.00
2019-05-16T09:26:31.857Z,0.83
2019-05-16T09:29:01.592Z,0.80
2019-05-16T09:31:33.229Z,0.80
2019-05-16T09:34:03.699Z,0.80
2019-05-16T09:36:33.409Z,0.80
2019-05-16T09:39:03.483Z,0.80
2019-05-16T09:41:49.751Z,0.80
2019-05-16T09:44:08.446Z,0.97
2019-05-16T09:46:38.102Z,0.90
2019-05-16T09:49:16.956Z,1.10
2019-05-16T09:51:41.876Z,0.80
2019-05-16T09:54:13.407Z,0.80
2019-05-16T09:56:43.234Z,0.73
2019-05-16T09:59:17.050Z,0.90
2019-05-16T10:01:48.052Z,0.80
2019-05-16T10:04:19.788Z,0.80
2019-05-16T10:06:51.158Z,0.80
2019-05-16T10:09:21.985Z,0.80
2019-05-16T10:12:06.946Z,0.80
2019-05-16T10:14:23.929Z,0.63
2019-05-16T10:16:54.662Z,0.80
2019-05-16T10:19:27.495Z,0.87
2019-05-16T10:22:00.048Z,0.73
2019-05-16T10:24:28.639Z,0.87
2019-05-16T10:26:59.028Z,0.73
2019-05-16T10:29:29.039Z,0.70
2019-05-16T10:31:59.061Z,0.60
2019-05-16T10:34:28.848Z,0.70
2019-05-16T10:36:58.809Z,0.80
2019-05-16T10:39:30.364Z,1.00
2019-05-16T10:42:23.156Z,1.00
2019-05-16T10:44:41.141Z,0.80
2019-05-16T10:47:11.852Z,1.10
2019-05-16T10:49:43.965Z,0.70
2019-05-16T10:52:16.613Z,0.73
2019-05-16T10:54:55.304Z,0.70
2019-05-16T10:57:18.681Z,0.97
2019-05-16T11:00:05.513Z,0.80
2019-05-16T11:02:22.806Z,0.77
2019-05-16T11:05:00.484Z,0.60
2019-05-16T11:07:29.530Z,0.70
2019-05-16T11:10:03.011Z,1.03
2019-05-16T11:12:46.232Z,0.90
2019-05-16T11:15:02.062Z,1.10
2019-05-16T11:17:32.787Z,0.87
2019-05-16T11:20:04.081Z,0.70
2019-05-16T11:22:37.953Z,0.60
2019-05-16T11:25:21.212Z,0.73
2019-05-16T11:27:46.711Z,0.80
2019-05-16T11:30:18.013Z,0.70
2019-05-16T11:32:48.837Z,0.90
2019-05-16T11:35:23.962Z,0.77
2019-05-16T11:37:57.072Z,0.73
2019-05-16T11:40:29.723Z,0.80
2019-05-16T11:43:09.291Z,0.80
2019-05-16T11:45:30.378Z,0.90
2019-05-16T11:48:01.250Z,1.40
2019-05-16T11:50:31.608Z,1.20
2019-05-16T11:53:07.144Z,1.10
2019-05-16T11:55:50.372Z,0.77
2019-05-16T11:58:09.483Z,0.80
2019-05-16T12:00:39.564Z,0.70
2019-05-16T12:03:11.752Z,0.80
2019-05-16T12:05:47.655Z,0.80
2019-05-16T12:08:17.512Z,0.80
2019-05-16T12:10:47.447Z,0.70
2019-05-16T12:13:27.549Z,0.70
2019-05-16T12:15:51.680Z,0.70
2019-05-16T12:18:21.745Z,1.00
2019-05-16T12:20:53.983Z,0.73
2019-05-16T12:23:23.860Z,0.67
2019-05-16T12:25:56.517Z,0.70
2019-05-16T12:28:27.204Z,0.80
2019-05-16T12:31:00.862Z,1.40
2019-05-16T12:33:30.578Z,1.03
2019-05-16T12:36:00.351Z,0.70
2019-05-16T12:38:29.932Z,1.10
2019-05-16T12:41:00.051Z,0.90
2019-05-16T12:43:44.867Z,0.80
2019-05-16T12:46:01.707Z,0.87
2019-05-16T12:48:32.266Z,0.90
2019-05-16T12:51:02.674Z,0.80
2019-05-16T12:53:32.498Z,0.90
2019-05-16T12:56:02.588Z,1.00
2019-05-16T12:58:42.143Z,6.57
2019-05-16T13:01:07.443Z,0.60
2019-05-16T13:03:38.070Z,0.70
2019-05-16T13:06:08.073Z,0.80
2019-05-16T13:08:40.054Z,0.70
2019-05-16T13:11:12.033Z,0.80
2019-05-16T13:13:58.529Z,0.80
2019-05-16T13:16:16.571Z,0.70
2019-05-16T13:18:47.936Z,0.90
2019-05-16T13:21:22.935Z,0.80
2019-05-16T13:23:52.467Z,0.73
2019-05-16T13:26:22.373Z,0.70
2019-05-16T13:28:57.918Z,1.07
2019-05-16T13:31:28.649Z,1.17
2019-05-16T13:34:00.454Z,0.90
2019-05-16T13:36:30.380Z,0.90
2019-05-16T13:39:00.511Z,1.10
2019-05-16T13:41:34.034Z,0.90
2019-05-16T13:44:14.342Z,1.00
2019-05-16T13:46:37.169Z,1.10
2019-05-16T13:49:07.432Z,2.60
2019-05-16T13:51:37.552Z,0.97
2019-05-16T13:54:07.560Z,1.30
2019-05-16T13:56:37.880Z,1.40
2019-05-16T13:59:13.041Z,1.37
2019-05-16T14:01:44.227Z,1.23
2019-05-16T14:04:17.337Z,1.00
2019-05-16T14:06:47.704Z,1.10
2019-05-16T14:09:17.494Z,1.40
2019-05-16T14:11:47.218Z,0.80
2019-05-16T14:14:33.154Z,0.97
2019-05-16T14:16:48.874Z,1.10
2019-05-16T14:19:19.382Z,1.00
2019-05-16T14:21:49.952Z,1.00
2019-05-16T14:24:20.199Z,0.90
2019-05-16T14:26:50.002Z,0.90
2019-05-16T14:29:19.935Z,1.00
2019-05-16T14:31:50.086Z,1.00
2019-05-16T14:34:20.227Z,0.90
2019-05-16T14:36:50.558Z,0.97
2019-05-16T14:39:21.723Z,0.87
2019-05-16T14:41:51.668Z,0.90
2019-05-16T14:44:22.417Z,1.00
2019-05-16T14:46:53.894Z,1.10
2019-05-16T14:49:23.902Z,0.80
2019-05-16T14:51:53.580Z,1.10
2019-05-16T14:54:26.807Z,1.00
2019-05-16T14:57:01.012Z,1.40
2019-05-16T14:59:30.784Z,1.20
2019-05-16T15:02:00.754Z,0.90
2019-05-16T15:04:30.347Z,1.00
2019-05-16T15:07:01.202Z,4.07
2019-05-16T15:09:31.478Z,1.50
2019-05-16T15:12:01.440Z,1.20
2019-05-16T15:14:31.769Z,1.00
2019-05-16T15:17:01.328Z,1.10
2019-05-16T15:19:30.872Z,0.97
2019-05-16T15:22:03.000Z,1.07
2019-05-16T15:24:32.635Z,1.10
2019-05-16T15:27:02.656Z,1.00
2019-05-16T15:29:32.481Z,1.10
2019-05-16T15:32:02.876Z,1.73
2019-05-16T15:34:37.795Z,1.00
2019-05-16T15:37:07.818Z,1.00
2019-05-16T15:39:40.433Z,0.97
2019-05-16T15:42:10.784Z,1.40
2019-05-16T15:44:42.647Z,1.10
2019-05-16T15:47:12.984Z,0.83
2019-05-16T15:49:42.853Z,1.17
2019-05-16T15:52:12.469Z,0.80
2019-05-16T15:54:46.805Z,1.10
2019-05-16T15:57:17.634Z,0.97
2019-05-16T15:59:49.071Z,1.10
2019-05-16T16:02:19.256Z,1.00
2019-05-16T16:04:49.138Z,0.90
2019-05-16T16:07:19.335Z,1.00
2019-05-16T16:09:49.874Z,1.10
2019-05-16T16:12:20.097Z,1.00
2019-05-16T16:14:50.037Z,1.00
2019-05-16T16:17:19.710Z,0.93
2019-05-16T16:19:49.613Z,1.00
2019-05-16T16:22:19.497Z,1.00
2019-05-16T16:24:51.190Z,0.90
2019-05-16T16:27:20.965Z,1.10
2019-05-16T16:29:51.794Z,1.00
2019-05-16T16:32:21.828Z,1.20
2019-05-16T16:34:52.681Z,0.83
2019-05-16T16:37:22.504Z,0.90
2019-05-16T16:39:54.436Z,0.93
2019-05-16T16:42:23.939Z,1.20
2019-05-16T16:44:53.741Z,1.03
2019-05-16T16:47:26.768Z,1.00
2019-05-16T16:49:59.101Z,0.90
2019-05-16T16:52:28.050Z,1.10
2019-05-16T16:54:57.673Z,0.90
2019-05-16T16:57:28.617Z,0.90
2019-05-16T17:00:01.125Z,0.87
2019-05-16T17:02:30.706Z,1.20
2019-05-16T17:05:03.339Z,1.00
2019-05-16T17:07:33.330Z,1.10
2019-05-16T17:10:06.833Z,1.30
2019-05-16T17:12:41.097Z,1.20
2019-05-16T17:15:11.634Z,1.10
2019-05-16T17:17:41.155Z,1.50
2019-05-16T17:20:16.125Z,1.07
2019-05-16T17:22:46.717Z,0.93
2019-05-16T17:25:16.684Z,1.20
2019-05-16T17:27:46.934Z,1.00
2019-05-16T17:30:18.416Z,1.10
2019-05-16T17:32:48.564Z,0.90
2019-05-16T17:35:27.513Z,1.10
2019-05-16T17:37:57.410Z,1.10
2019-05-16T17:40:27.522Z,1.00
2019-05-16T17:42:57.846Z,1.30
2019-05-16T17:45:28.060Z,0.80
2019-05-16T17:47:57.542Z,1.30
2019-05-16T17:50:30.310Z,1.27
2019-05-16T17:53:01.111Z,1.20
2019-05-16T17:55:30.707Z,1.20
2019-05-16T17:58:06.369Z,1.10
2019-05-16T18:00:35.304Z,1.10
2019-05-16T18:03:06.633Z,1.10
2019-05-16T18:05:47.662Z,1.20
2019-05-16T18:08:17.880Z,1.20
2019-05-16T18:10:48.388Z,1.80
2019-05-16T18:13:19.821Z,4.17
2019-05-16T18:15:49.784Z,2.50
2019-05-16T18:18:20.642Z,2.70
2019-05-16T18:20:57.939Z,1.40
2019-05-16T18:23:22.893Z,1.60
2019-05-16T18:25:58.739Z,1.10
2019-05-16T18:28:29.209Z,1.00
2019-05-16T18:30:59.555Z,1.17
2019-05-16T18:33:30.695Z,1.03
2019-05-16T18:36:01.031Z,1.10
2019-05-16T18:38:31.675Z,0.97
2019-05-16T18:41:02.686Z,0.73
2019-05-16T18:43:32.651Z,1.10
2019-05-16T18:46:07.378Z,0.90
2019-05-16T18:48:38.537Z,1.03
2019-05-16T18:51:09.390Z,1.00
2019-05-16T18:53:40.471Z,1.43
2019-05-16T18:56:16.846Z,0.93
2019-05-16T18:58:57.276Z,1.10
2019-05-16T19:02:13.586Z,1.27
2019-05-16T19:04:53.863Z,1.30
2019-05-16T19:07:38.507Z,1.27
2019-05-16T19:10:13.041Z,1.13
2019-05-16T19:12:48.654Z,1.47
2019-05-16T19:15:21.388Z,1.13
2019-05-16T19:18:16.924Z,1.77
2019-05-16T19:21:07.551Z,0.87
2019-05-16T19:23:43.454Z,1.30
2019-05-16T19:26:23.581Z,0.90
2019-05-16T19:29:01.796Z,1.00
2019-05-16T19:32:20.728Z,1.03
2019-05-16T19:35:41.171Z,0.90
2019-05-16T19:38:18.551Z,1.03
2019-05-16T19:41:00.875Z,1.10
2019-05-16T19:43:31.455Z,0.90
2019-05-16T19:46:02.100Z,1.60
2019-05-16T19:48:34.060Z,1.20
2019-05-16T19:51:07.432Z,1.10
2019-05-16T19:53:43.806Z,1.00
2019-05-16T19:56:13.756Z,1.00
2019-05-16T19:58:46.654Z,1.00
2019-05-16T20:01:17.069Z,1.60
2019-05-16T20:03:47.461Z,1.00
2019-05-16T20:06:17.638Z,1.20
2019-05-16T20:08:49.070Z,1.10
2019-05-16T20:11:27.490Z,1.00
2019-05-16T20:14:00.909Z,1.00
2019-05-16T20:16:33.066Z,0.80
2019-05-16T20:19:06.658Z,1.10
2019-05-16T20:21:40.568Z,4.43
2019-05-16T20:24:12.163Z,1.00
2019-05-16T20:26:46.300Z,1.37
2019-05-16T20:29:18.239Z,1.20
2019-05-16T20:31:48.455Z,0.70
2019-05-16T20:34:23.921Z,0.87
2019-05-16T20:36:57.190Z,0.60
2019-05-16T20:39:27.679Z,0.90
2019-05-16T20:41:59.685Z,0.70
2019-05-16T20:44:30.337Z,1.20
2019-05-16T20:47:00.704Z,0.87
2019-05-16T20:49:30.451Z,0.90
2019-05-16T20:52:00.912Z,0.80
2019-05-16T20:54:31.498Z,0.80
2019-05-16T20:57:02.426Z,0.80
2019-05-16T20:59:32.281Z,0.90
2019-05-16T21:02:02.013Z,0.90
2019-05-16T21:04:32.738Z,0.70
2019-05-16T21:07:23.959Z,0.83
2019-05-16T21:09:57.007Z,0.70
2019-05-16T21:13:00.295Z,0.60
2019-05-16T21:15:30.277Z,0.60
2019-05-16T21:18:00.770Z,0.90
2019-05-16T21:20:30.982Z,0.93
2019-05-16T21:23:02.659Z,0.70
2019-05-16T21:25:32.412Z,0.57
2019-05-16T21:28:07.932Z,0.50
2019-05-16T21:30:38.196Z,0.53
2019-05-16T21:33:08.272Z,0.80
2019-05-16T21:35:42.265Z,0.67
2019-05-16T21:38:16.504Z,0.60
2019-05-16T21:40:49.513Z,0.70
2019-05-16T21:43:19.902Z,0.77
2019-05-16T21:45:50.909Z,0.70
2019-05-16T21:48:20.927Z,0.87
2019-05-16T21:50:51.555Z,0.77
2019-05-16T21:53:21.316Z,0.70
2019-05-16T21:55:51.685Z,0.60
2019-05-16T21:58:21.873Z,0.80
2019-05-16T22:00:57.152Z,1.00
2019-05-16T22:03:27.109Z,0.70
2019-05-16T22:05:58.612Z,0.70
2019-05-16T22:08:30.368Z,0.80
2019-05-16T22:11:00.999Z,0.60
2019-05-16T22:13:31.203Z,0.70
2019-05-16T22:16:05.637Z,0.70
2019-05-16T22:18:38.593Z,0.80
2019-05-16T22:21:10.534Z,0.80
2019-05-16T22:23:40.680Z,0.57
2019-05-16T22:26:11.370Z,0.70
2019-05-16T22:28:41.507Z,1.00
2019-05-16T22:31:11.961Z,1.00
2019-05-16T22:33:42.773Z,0.70
2019-05-16T22:36:13.337Z,0.70
2019-05-16T22:38:43.389Z,0.80
2019-05-16T22:41:13.672Z,0.70
2019-05-16T22:43:46.554Z,0.90
2019-05-16T22:46:18.937Z,0.70
2019-05-16T22:48:49.452Z,0.70
2019-05-16T22:51:19.565Z,0.70
2019-05-16T22:53:58.794Z,0.80
2019-05-16T22:56:28.593Z,0.60
2019-05-16T22:58:58.875Z,0.60
2019-05-16T23:01:33.781Z,0.83
2019-05-16T23:04:03.658Z,0.80
2019-05-16T23:06:36.229Z,0.77
2019-05-16T23:09:07.156Z,0.73
2019-05-16T23:11:37.591Z,0.70
2019-05-16T23:14:08.446Z,0.90
2019-05-16T23:16:39.095Z,0.80
2019-05-16T23:19:09.022Z,0.80
2019-05-16T23:21:38.579Z,0.90
2019-05-16T23:24:09.121Z,0.70
2019-05-16T23:26:39.064Z,0.90
2019-05-16T23:29:09.000Z,0.90
2019-05-16T23:31:38.922Z,0.60
2019-05-16T23:34:09.392Z,0.77
2019-05-16T23:36:39.116Z,0.77
2019-05-16T23:39:09.584Z,0.70
2019-05-16T23:41:39.959Z,0.83
2019-05-16T23:44:11.673Z,0.90
2019-05-16T23:46:42.298Z,0.70
2019-05-16T23:49:12.947Z,0.90
2019-05-16T23:51:43.806Z,0.60
2019-05-16T23:54:13.937Z,0.60
2019-05-16T23:56:46.602Z,0.80
2019-05-16T23:59:17.187Z,1.00
